sensor_id;sensor_type;location;lat;lon;timestamp;pressure;altitude;pressure_sealevel;temperature;humidity
49943;BME280;36011;53.362;58.948;2023-07-13T00:01:40;96452.16;;;15.58;50.45
49943;BME280;36011;53.362;58.948;2023-07-13T00:04:44;96452.44;;;15.55;50.71
49943;BME280;36011;53.362;58.948;2023-07-13T00:07:48;96455.50;;;15.60;50.73
49943;BME280;36011;53.362;58.948;2023-07-13T00:10:52;96459.69;;;15.53;50.79
49943;BME280;36011;53.362;58.948;2023-07-13T00:13:56;96459.38;;;15.56;50.97
49943;BME280;36011;53.362;58.948;2023-07-13T00:16:59;96463.47;;;15.60;50.89
49943;BME280;36011;53.362;58.948;2023-07-13T00:20:02;96460.81;;;15.60;50.93
49943;BME280;36011;53.362;58.948;2023-07-13T00:23:07;96456.34;;;15.61;50.83
49943;BME280;36011;53.362;58.948;2023-07-13T00:26:11;96466.09;;;15.60;51.04
49943;BME280;36011;53.362;58.948;2023-07-13T00:29:14;96454.09;;;15.66;51.03
49943;BME280;36011;53.362;58.948;2023-07-13T00:32:18;96453.84;;;15.69;51.15
49943;BME280;36011;53.362;58.948;2023-07-13T00:35:22;96454.09;;;15.76;51.12
49943;BME280;36011;53.362;58.948;2023-07-13T00:38:26;96446.56;;;15.81;51.04
49943;BME280;36011;53.362;58.948;2023-07-13T00:41:30;96449.34;;;15.79;51.02
49943;BME280;36011;53.362;58.948;2023-07-13T00:44:33;96446.56;;;15.81;51.08
49943;BME280;36011;53.362;58.948;2023-07-13T00:47:40;96452.44;;;15.75;51.20
49943;BME280;36011;53.362;58.948;2023-07-13T00:50:44;96457.59;;;15.86;50.93
49943;BME280;36011;53.362;58.948;2023-07-13T00:53:50;96476.44;;;15.73;51.42
49943;BME280;36011;53.362;58.948;2023-07-13T00:56:55;96477.56;;;15.80;51.22
49943;BME280;36011;53.362;58.948;2023-07-13T01:00:01;96477.13;;;15.85;51.28
49943;BME280;36011;53.362;58.948;2023-07-13T01:03:10;96464.97;;;15.82;51.36
49943;BME280;36011;53.362;58.948;2023-07-13T01:06:13;96447.66;;;15.88;51.46
49943;BME280;36011;53.362;58.948;2023-07-13T01:09:17;96433.97;;;16.02;51.17
49943;BME280;36011;53.362;58.948;2023-07-13T01:12:20;96431.81;;;16.15;50.79
49943;BME280;36011;53.362;58.948;2023-07-13T01:18:36;96446.97;;;16.33;50.44
49943;BME280;36011;53.362;58.948;2023-07-13T01:21:39;96442.66;;;16.32;50.46
49943;BME280;36011;53.362;58.948;2023-07-13T01:24:47;96441.63;;;16.43;50.50
49943;BME280;36011;53.362;58.948;2023-07-13T01:27:50;96442.16;;;16.46;50.38
49943;BME280;36011;53.362;58.948;2023-07-13T01:30:54;96446.31;;;16.58;50.25
49943;BME280;36011;53.362;58.948;2023-07-13T01:33:58;96443.22;;;16.63;50.21
49943;BME280;36011;53.362;58.948;2023-07-13T01:37:01;96444.34;;;16.60;50.38
49943;BME280;36011;53.362;58.948;2023-07-13T01:40:04;96442.91;;;16.66;50.34
49943;BME280;36011;53.362;58.948;2023-07-13T01:43:08;96437.16;;;16.71;50.08
49943;BME280;36011;53.362;58.948;2023-07-13T01:46:11;96428.91;;;16.74;50.12
49943;BME280;36011;53.362;58.948;2023-07-13T01:49:14;96433.34;;;16.83;50.17
49943;BME280;36011;53.362;58.948;2023-07-13T01:52:17;96444.56;;;16.77;50.13
49943;BME280;36011;53.362;58.948;2023-07-13T01:55:21;96450.16;;;16.74;50.36
49943;BME280;36011;53.362;58.948;2023-07-13T01:58:25;96447.22;;;16.77;50.37
49943;BME280;36011;53.362;58.948;2023-07-13T02:01:28;96446.78;;;16.81;50.51
49943;BME280;36011;53.362;58.948;2023-07-13T02:04:32;96443.16;;;17.00;50.18
49943;BME280;36011;53.362;58.948;2023-07-13T02:07:36;96438.53;;;17.02;50.24
49943;BME280;36011;53.362;58.948;2023-07-13T02:10:40;96438.94;;;17.08;50.11
49943;BME280;36011;53.362;58.948;2023-07-13T02:13:43;96443.81;;;17.30;49.96
49943;BME280;36011;53.362;58.948;2023-07-13T02:16:47;96435.72;;;17.58;49.22
49943;BME280;36011;53.362;58.948;2023-07-13T02:19:51;96430.63;;;17.82;48.66
49943;BME280;36011;53.362;58.948;2023-07-13T02:22:54;96438.94;;;18.05;48.43
49943;BME280;36011;53.362;58.948;2023-07-13T02:25:58;96446.91;;;18.31;48.26
49943;BME280;36011;53.362;58.948;2023-07-13T02:29:00;96440.41;;;18.60;47.83
49943;BME280;36011;53.362;58.948;2023-07-13T02:32:03;96441.53;;;18.83;47.39
49943;BME280;36011;53.362;58.948;2023-07-13T02:35:07;96453.13;;;19.17;46.88
49943;BME280;36011;53.362;58.948;2023-07-13T02:38:10;96453.66;;;19.53;46.49
49943;BME280;36011;53.362;58.948;2023-07-13T02:41:14;96461.72;;;19.78;46.12
49943;BME280;36011;53.362;58.948;2023-07-13T02:44:18;96460.06;;;19.93;45.89
49943;BME280;36011;53.362;58.948;2023-07-13T02:47:22;96461.53;;;20.04;45.22
49943;BME280;36011;53.362;58.948;2023-07-13T02:50:26;96462.06;;;20.07;45.06
49943;BME280;36011;53.362;58.948;2023-07-13T02:53:30;96465.72;;;20.14;44.31
49943;BME280;36011;53.362;58.948;2023-07-13T02:56:33;96457.88;;;20.05;44.70
49943;BME280;36011;53.362;58.948;2023-07-13T02:59:37;96457.06;;;20.04;44.39
49943;BME280;36011;53.362;58.948;2023-07-13T03:02:40;96455.38;;;19.95;44.20
49943;BME280;36011;53.362;58.948;2023-07-13T03:05:43;96456.06;;;19.97;44.38
49943;BME280;36011;53.362;58.948;2023-07-13T03:08:47;96453.53;;;20.12;44.44
49943;BME280;36011;53.362;58.948;2023-07-13T03:11:54;96454.69;;;20.26;44.33
49943;BME280;36011;53.362;58.948;2023-07-13T03:14:58;96452.81;;;20.42;43.92
49943;BME280;36011;53.362;58.948;2023-07-13T03:18:01;96453.59;;;20.68;43.91
49943;BME280;36011;53.362;58.948;2023-07-13T03:21:04;96455.13;;;21.01;43.05
49943;BME280;36011;53.362;58.948;2023-07-13T03:24:08;96456.47;;;21.28;42.58
49943;BME280;36011;53.362;58.948;2023-07-13T03:27:11;96454.59;;;21.37;42.50
49943;BME280;36011;53.362;58.948;2023-07-13T03:30:15;96463.91;;;21.49;42.41
49943;BME280;36011;53.362;58.948;2023-07-13T03:33:19;96461.38;;;21.48;42.13
49943;BME280;36011;53.362;58.948;2023-07-13T03:36:24;96471.28;;;21.47;42.16
49943;BME280;36011;53.362;58.948;2023-07-13T03:39:28;96482.34;;;21.44;41.98
49943;BME280;36011;53.362;58.948;2023-07-13T03:42:31;96484.34;;;21.42;41.86
49943;BME280;36011;53.362;58.948;2023-07-13T03:45:37;96481.16;;;21.47;42.44
49943;BME280;36011;53.362;58.948;2023-07-13T03:48:41;96479.59;;;21.52;41.65
49943;BME280;36011;53.362;58.948;2023-07-13T03:51:46;96470.91;;;21.50;40.88
49943;BME280;36011;53.362;58.948;2023-07-13T03:54:50;96464.16;;;21.63;40.75
49943;BME280;36011;53.362;58.948;2023-07-13T03:57:58;96468.94;;;21.67;40.71
49943;BME280;36011;53.362;58.948;2023-07-13T04:01:02;96463.06;;;21.72;40.02
49943;BME280;36011;53.362;58.948;2023-07-13T04:04:06;96462.59;;;21.68;39.59
49943;BME280;36011;53.362;58.948;2023-07-13T04:07:09;96466.75;;;21.71;38.99
49943;BME280;36011;53.362;58.948;2023-07-13T04:10:12;96466.88;;;21.78;39.14
49943;BME280;36011;53.362;58.948;2023-07-13T04:13:16;96467.47;;;21.65;39.71
49943;BME280;36011;53.362;58.948;2023-07-13T04:16:20;96473.78;;;21.49;39.92
49943;BME280;36011;53.362;58.948;2023-07-13T04:19:23;96465.91;;;21.47;39.91
49943;BME280;36011;53.362;58.948;2023-07-13T04:22:27;96467.47;;;21.65;39.80
49943;BME280;36011;53.362;58.948;2023-07-13T04:25:31;96470.47;;;22.08;39.30
49943;BME280;36011;53.362;58.948;2023-07-13T04:28:35;96465.84;;;22.69;38.02
49943;BME280;36011;53.362;58.948;2023-07-13T04:31:37;96468.22;;;23.23;36.40
49943;BME280;36011;53.362;58.948;2023-07-13T04:34:41;96466.81;;;23.64;36.48
49943;BME280;36011;53.362;58.948;2023-07-13T04:37:47;96469.56;;;24.13;35.72
49943;BME280;36011;53.362;58.948;2023-07-13T04:40:50;96459.22;;;24.67;35.46
49943;BME280;36011;53.362;58.948;2023-07-13T04:43:52;96472.97;;;24.85;34.85
49943;BME280;36011;53.362;58.948;2023-07-13T04:46:53;96475.09;;;24.96;34.11
49943;BME280;36011;53.362;58.948;2023-07-13T04:49:54;96467.50;;;25.06;34.73
49943;BME280;36011;53.362;58.948;2023-07-13T04:52:56;96463.91;;;24.99;35.25
49943;BME280;36011;53.362;58.948;2023-07-13T04:56:00;96472.50;;;24.75;35.95
49943;BME280;36011;53.362;58.948;2023-07-13T04:59:03;96468.47;;;24.92;36.32
49943;BME280;36011;53.362;58.948;2023-07-13T05:02:07;96474.63;;;28.10;32.34
49943;BME280;36011;53.362;58.948;2023-07-13T05:05:08;96482.69;;;32.40;28.41
49943;BME280;36011;53.362;58.948;2023-07-13T05:08:12;96491.09;;;36.32;25.03
49943;BME280;36011;53.362;58.948;2023-07-13T05:11:15;96488.66;;;38.22;24.65
49943;BME280;36011;53.362;58.948;2023-07-13T05:14:18;96481.13;;;40.68;22.58
49943;BME280;36011;53.362;58.948;2023-07-13T05:17:23;96475.72;;;43.44;17.67
49943;BME280;36011;53.362;58.948;2023-07-13T05:20:28;96472.69;;;45.41;20.66
49943;BME280;36011;53.362;58.948;2023-07-13T05:23:30;96466.84;;;46.56;13.86
49943;BME280;36011;53.362;58.948;2023-07-13T05:26:33;96466.47;;;47.61;18.08
49943;BME280;36011;53.362;58.948;2023-07-13T05:29:36;96467.72;;;49.13;16.25
49943;BME280;36011;53.362;58.948;2023-07-13T05:32:40;96478.59;;;50.36;15.97
49943;BME280;36011;53.362;58.948;2023-07-13T05:35:41;96477.47;;;50.21;16.93
49943;BME280;36011;53.362;58.948;2023-07-13T05:38:47;96454.19;;;49.15;15.32
49943;BME280;36011;53.362;58.948;2023-07-13T05:41:53;96447.56;;;48.47;10.68
49943;BME280;36011;53.362;58.948;2023-07-13T05:44:56;96447.97;;;49.21;15.22
49943;BME280;36011;53.362;58.948;2023-07-13T05:47:59;96455.28;;;50.28;14.39
49943;BME280;36011;53.362;58.948;2023-07-13T05:51:01;96440.38;;;50.44;12.52
49943;BME280;36011;53.362;58.948;2023-07-13T05:54:06;96432.84;;;49.07;12.42
49943;BME280;36011;53.362;58.948;2023-07-13T05:57:13;96427.56;;;47.28;14.58
49943;BME280;36011;53.362;58.948;2023-07-13T06:00:19;96413.56;;;45.91;15.32
49943;BME280;36011;53.362;58.948;2023-07-13T06:03:26;96418.34;;;46.78;12.91
49943;BME280;36011;53.362;58.948;2023-07-13T06:06:30;96418.28;;;47.60;11.82
49943;BME280;36011;53.362;58.948;2023-07-13T06:09:34;96419.34;;;48.65;12.56
49943;BME280;36011;53.362;58.948;2023-07-13T06:12:38;96417.69;;;50.10;10.62
49943;BME280;36011;53.362;58.948;2023-07-13T06:15:43;96417.78;;;48.95;10.89
49943;BME280;36011;53.362;58.948;2023-07-13T06:18:51;96395.84;;;45.54;12.13
49943;BME280;36011;53.362;58.948;2023-07-13T06:21:52;96394.47;;;43.66;13.48
49943;BME280;36011;53.362;58.948;2023-07-13T06:24:54;96369.97;;;42.09;13.68
49943;BME280;36011;53.362;58.948;2023-07-13T06:27:57;96375.75;;;41.76;14.38
49943;BME280;36011;53.362;58.948;2023-07-13T06:30:58;96368.47;;;42.25;13.84
49943;BME280;36011;53.362;58.948;2023-07-13T06:34:02;96367.97;;;42.01;14.69
49943;BME280;36011;53.362;58.948;2023-07-13T06:37:06;96363.06;;;42.20;14.82
49943;BME280;36011;53.362;58.948;2023-07-13T06:40:11;96358.84;;;43.16;12.62
49943;BME280;36011;53.362;58.948;2023-07-13T06:43:17;96367.00;;;45.08;12.99
49943;BME280;36011;53.362;58.948;2023-07-13T06:46:23;96370.47;;;47.46;10.88
49943;BME280;36011;53.362;58.948;2023-07-13T06:49:25;96376.91;;;50.28;10.41
49943;BME280;36011;53.362;58.948;2023-07-13T06:52:29;96376.59;;;52.80;8.98
49943;BME280;36011;53.362;58.948;2023-07-13T06:55:32;96384.47;;;51.66;9.41
49943;BME280;36011;53.362;58.948;2023-07-13T06:58:35;96373.47;;;49.61;10.38
49943;BME280;36011;53.362;58.948;2023-07-13T07:01:39;96368.34;;;50.41;10.57
49943;BME280;36011;53.362;58.948;2023-07-13T07:04:43;96373.41;;;49.41;10.11
49943;BME280;36011;53.362;58.948;2023-07-13T07:07:44;96371.25;;;49.19;11.28
49943;BME280;36011;53.362;58.948;2023-07-13T07:10:47;96358.28;;;51.58;9.92
49943;BME280;36011;53.362;58.948;2023-07-13T07:13:54;96376.41;;;54.32;8.54
49943;BME280;36011;53.362;58.948;2023-07-13T07:17:04;96367.63;;;55.23;8.27
49943;BME280;36011;53.362;58.948;2023-07-13T07:20:09;96362.03;;;53.67;9.67
49943;BME280;36011;53.362;58.948;2023-07-13T07:23:10;96366.78;;;54.54;8.51
49943;BME280;36011;53.362;58.948;2023-07-13T07:26:12;96357.44;;;55.93;6.31
49943;BME280;36011;53.362;58.948;2023-07-13T07:29:15;96365.22;;;55.32;6.91
49943;BME280;36011;53.362;58.948;2023-07-13T07:32:20;96344.84;;;53.21;6.65
49943;BME280;36011;53.362;58.948;2023-07-13T07:35:27;96341.72;;;51.19;8.38
49943;BME280;36011;53.362;58.948;2023-07-13T07:38:32;96339.84;;;51.04;8.89
49943;BME280;36011;53.362;58.948;2023-07-13T07:41:35;96327.03;;;51.03;8.17
49943;BME280;36011;53.362;58.948;2023-07-13T07:44:39;96328.72;;;50.19;8.58
49943;BME280;36011;53.362;58.948;2023-07-13T07:47:44;96314.06;;;50.95;8.04
49943;BME280;36011;53.362;58.948;2023-07-13T07:50:48;96315.28;;;51.77;7.74
49943;BME280;36011;53.362;58.948;2023-07-13T07:53:51;96305.91;;;52.71;7.01
49943;BME280;36011;53.362;58.948;2023-07-13T07:56:53;96318.09;;;54.39;7.18
49943;BME280;36011;53.362;58.948;2023-07-13T07:59:57;96321.06;;;56.10;6.20
49943;BME280;36011;53.362;58.948;2023-07-13T08:03:00;96315.66;;;55.45;6.33
49943;BME280;36011;53.362;58.948;2023-07-13T08:06:06;96306.25;;;55.84;6.17
49943;BME280;36011;53.362;58.948;2023-07-13T08:09:09;96297.97;;;55.30;5.53
49943;BME280;36011;53.362;58.948;2023-07-13T08:12:12;96306.81;;;55.22;6.34
49943;BME280;36011;53.362;58.948;2023-07-13T08:15:16;96309.25;;;55.30;5.67
49943;BME280;36011;53.362;58.948;2023-07-13T08:18:18;96294.75;;;53.37;7.14
49943;BME280;36011;53.362;58.948;2023-07-13T08:21:22;96296.75;;;53.36;6.29
49943;BME280;36011;53.362;58.948;2023-07-13T08:24:24;96282.72;;;52.81;6.96
49943;BME280;36011;53.362;58.948;2023-07-13T08:27:27;96262.34;;;50.62;7.82
49943;BME280;36011;53.362;58.948;2023-07-13T08:30:34;96263.97;;;49.78;8.16
49943;BME280;36011;53.362;58.948;2023-07-13T08:33:40;96254.69;;;50.36;7.78
49943;BME280;36011;53.362;58.948;2023-07-13T08:36:47;96272.31;;;51.70;7.20
49943;BME280;36011;53.362;58.948;2023-07-13T08:39:49;96262.44;;;50.23;7.69
49943;BME280;36011;53.362;58.948;2023-07-13T08:42:54;96252.84;;;49.82;7.92
49943;BME280;36011;53.362;58.948;2023-07-13T08:46:02;96238.97;;;49.66;7.92
49943;BME280;36011;53.362;58.948;2023-07-13T08:49:11;96234.94;;;47.69;9.15
49943;BME280;36011;53.362;58.948;2023-07-13T08:52:26;96226.72;;;48.17;8.73
49943;BME280;36011;53.362;58.948;2023-07-13T08:55:33;96227.50;;;48.81;8.59
49943;BME280;36011;53.362;58.948;2023-07-13T08:58:41;96219.72;;;50.49;8.05
49943;BME280;36011;53.362;58.948;2023-07-13T09:02:00;96231.34;;;51.31;6.88
49943;BME280;36011;53.362;58.948;2023-07-13T09:14:45;96195.28;;;46.43;9.63
49943;BME280;36011;53.362;58.948;2023-07-13T09:17:49;96195.56;;;48.15;8.64
49943;BME280;36011;53.362;58.948;2023-07-13T09:23:59;96192.75;;;49.72;8.16
49943;BME280;36011;53.362;58.948;2023-07-13T09:27:13;96194.00;;;49.55;8.49
49943;BME280;36011;53.362;58.948;2023-07-13T09:31:06;96185.97;;;49.54;8.08
49943;BME280;36011;53.362;58.948;2023-07-13T09:33:44;96178.81;;;49.17;8.50
49943;BME280;36011;53.362;58.948;2023-07-13T09:36:46;96177.47;;;49.66;8.33
49943;BME280;36011;53.362;58.948;2023-07-13T09:39:47;96153.81;;;48.34;8.28
49943;BME280;36011;53.362;58.948;2023-07-13T09:42:53;96153.31;;;46.48;9.55
49943;BME280;36011;53.362;58.948;2023-07-13T09:45:57;96145.91;;;44.82;10.07
49943;BME280;36011;53.362;58.948;2023-07-13T09:49:03;96144.09;;;41.61;11.93
49943;BME280;36011;53.362;58.948;2023-07-13T09:52:07;96144.03;;;42.23;11.75
49943;BME280;36011;53.362;58.948;2023-07-13T09:55:24;96136.66;;;41.70;12.31
49943;BME280;36011;53.362;58.948;2023-07-13T09:58:29;96124.25;;;40.13;13.26
49943;BME280;36011;53.362;58.948;2023-07-13T10:01:36;96131.19;;;38.66;14.18
49943;BME280;36011;53.362;58.948;2023-07-13T10:04:42;96122.94;;;36.33;16.02
49943;BME280;36011;53.362;58.948;2023-07-13T10:07:47;96121.84;;;35.28;17.10
49943;BME280;36011;53.362;58.948;2023-07-13T10:10:53;96130.09;;;34.09;18.00
49943;BME280;36011;53.362;58.948;2023-07-13T10:13:59;96124.94;;;32.95;18.91
49943;BME280;36011;53.362;58.948;2023-07-13T10:17:05;96120.03;;;32.43;19.92
49943;BME280;36011;53.362;58.948;2023-07-13T10:20:10;96123.81;;;31.93;20.99
49943;BME280;36011;53.362;58.948;2023-07-13T10:23:18;96120.88;;;31.05;22.36
49943;BME280;36011;53.362;58.948;2023-07-13T10:26:26;96125.44;;;30.25;23.04
49943;BME280;36011;53.362;58.948;2023-07-13T10:29:32;96118.25;;;29.43;23.76
49943;BME280;36011;53.362;58.948;2023-07-13T10:32:37;96113.91;;;28.53;25.06
49943;BME280;36011;53.362;58.948;2023-07-13T10:35:40;96127.19;;;28.43;25.71
49943;BME280;36011;53.362;58.948;2023-07-13T10:38:43;96109.94;;;28.07;25.65
49943;BME280;36011;53.362;58.948;2023-07-13T10:41:47;96109.69;;;27.60;26.58
49943;BME280;36011;53.362;58.948;2023-07-13T10:44:50;96100.28;;;27.01;26.38
49943;BME280;36011;53.362;58.948;2023-07-13T10:47:52;96101.69;;;27.28;26.77
49943;BME280;36011;53.362;58.948;2023-07-13T10:50:58;96092.25;;;27.38;27.31
49943;BME280;36011;53.362;58.948;2023-07-13T10:54:16;96083.69;;;27.77;26.54
49943;BME280;36011;53.362;58.948;2023-07-13T10:57:24;96099.38;;;29.72;24.34
49943;BME280;36011;53.362;58.948;2023-07-13T11:00:30;96099.91;;;31.95;22.34
49943;BME280;36011;53.362;58.948;2023-07-13T11:03:33;96110.00;;;33.40;20.52
49943;BME280;36011;53.362;58.948;2023-07-13T11:06:38;96096.25;;;34.25;19.48
49943;BME280;36011;53.362;58.948;2023-07-13T11:09:42;96088.16;;;35.38;18.57
49943;BME280;36011;53.362;58.948;2023-07-13T11:12:53;96088.94;;;35.64;18.18
49943;BME280;36011;53.362;58.948;2023-07-13T11:15:59;96085.44;;;35.43;18.84
49943;BME280;36011;53.362;58.948;2023-07-13T11:28:22;96072.47;;;31.02;23.11
49943;BME280;36011;53.362;58.948;2023-07-13T11:31:24;96079.13;;;30.60;23.33
49943;BME280;36011;53.362;58.948;2023-07-13T11:34:31;96065.50;;;29.34;25.24
49943;BME280;36011;53.362;58.948;2023-07-13T11:37:39;96071.28;;;29.14;25.78
49943;BME280;36011;53.362;58.948;2023-07-13T11:40:43;96078.19;;;28.75;26.07
49943;BME280;36011;53.362;58.948;2023-07-13T11:43:50;96061.53;;;27.87;26.84
49943;BME280;36011;53.362;58.948;2023-07-13T11:46:57;96073.94;;;27.95;28.18
49943;BME280;36011;53.362;58.948;2023-07-13T11:50:04;96061.78;;;27.30;28.36
49943;BME280;36011;53.362;58.948;2023-07-13T11:53:09;96057.59;;;26.34;28.35
49943;BME280;36011;53.362;58.948;2023-07-13T11:56:12;96089.94;;;26.03;28.97
49943;BME280;36011;53.362;58.948;2023-07-13T11:59:16;96083.66;;;25.70;31.33
49943;BME280;36011;53.362;58.948;2023-07-13T12:02:42;96084.66;;;24.84;34.64
49943;BME280;36011;53.362;58.948;2023-07-13T12:05:55;96082.91;;;24.17;37.66
49943;BME280;36011;53.362;58.948;2023-07-13T12:09:08;96087.16;;;23.37;39.38
49943;BME280;36011;53.362;58.948;2023-07-13T12:12:19;96090.97;;;22.93;40.23
49943;BME280;36011;53.362;58.948;2023-07-13T12:15:22;96085.13;;;22.54;41.67
49943;BME280;36011;53.362;58.948;2023-07-13T12:18:28;96092.56;;;21.94;43.40
49943;BME280;36011;53.362;58.948;2023-07-13T12:21:33;96119.03;;;21.68;44.21
49943;BME280;36011;53.362;58.948;2023-07-13T12:24:37;96096.41;;;20.67;45.86
49943;BME280;36011;53.362;58.948;2023-07-13T12:27:42;96100.97;;;20.35;47.42
49943;BME280;36011;53.362;58.948;2023-07-13T12:30:47;96112.34;;;19.83;50.78
49943;BME280;36011;53.362;58.948;2023-07-13T12:37:21;96105.66;;;18.67;56.59
49943;BME280;36011;53.362;58.948;2023-07-13T12:40:26;96108.69;;;18.39;57.70
49943;BME280;36011;53.362;58.948;2023-07-13T12:43:30;96108.69;;;18.39;57.95
49943;BME280;36011;53.362;58.948;2023-07-13T12:46:50;96123.00;;;18.22;58.64
49943;BME280;36011;53.362;58.948;2023-07-13T12:49:57;96117.31;;;18.17;58.82
49943;BME280;36011;53.362;58.948;2023-07-13T12:53:04;96122.44;;;17.86;58.71
49943;BME280;36011;53.362;58.948;2023-07-13T12:56:08;96128.53;;;17.70;59.10
49943;BME280;36011;53.362;58.948;2023-07-13T12:59:19;96120.53;;;17.62;59.40
49943;BME280;36011;53.362;58.948;2023-07-13T13:05:26;96125.66;;;17.55;61.70
49943;BME280;36011;53.362;58.948;2023-07-13T13:08:34;96121.09;;;17.39;63.12
49943;BME280;36011;53.362;58.948;2023-07-13T13:11:35;96124.63;;;17.48;62.79
49943;BME280;36011;53.362;58.948;2023-07-13T13:14:36;96126.59;;;17.88;62.77
49943;BME280;36011;53.362;58.948;2023-07-13T13:17:40;96120.31;;;18.14;62.46
49943;BME280;36011;53.362;58.948;2023-07-13T13:20:41;96111.53;;;18.30;61.43
49943;BME280;36011;53.362;58.948;2023-07-13T13:23:44;96105.00;;;18.57;60.49
49943;BME280;36011;53.362;58.948;2023-07-13T13:26:46;96096.03;;;18.66;59.85
49943;BME280;36011;53.362;58.948;2023-07-13T13:29:50;96099.69;;;18.81;59.33
49943;BME280;36011;53.362;58.948;2023-07-13T13:32:57;96092.00;;;18.87;58.68
49943;BME280;36011;53.362;58.948;2023-07-13T13:35:58;96100.00;;;18.95;58.60
49943;BME280;36011;53.362;58.948;2023-07-13T13:39:02;96091.09;;;19.11;57.66
49943;BME280;36011;53.362;58.948;2023-07-13T13:42:08;96094.88;;;19.24;57.24
49943;BME280;36011;53.362;58.948;2023-07-13T13:45:14;96088.84;;;19.39;56.51
49943;BME280;36011;53.362;58.948;2023-07-13T13:48:26;96085.09;;;19.56;56.08
49943;BME280;36011;53.362;58.948;2023-07-13T13:51:30;96082.72;;;19.69;55.95
49943;BME280;36011;53.362;58.948;2023-07-13T13:54:32;96078.66;;;19.82;55.34
49943;BME280;36011;53.362;58.948;2023-07-13T13:57:36;96071.28;;;20.07;54.84
49943;BME280;36011;53.362;58.948;2023-07-13T14:00:37;96068.69;;;20.22;54.73
49943;BME280;36011;53.362;58.948;2023-07-13T14:03:39;96063.34;;;20.22;54.93
49943;BME280;36011;53.362;58.948;2023-07-13T14:06:43;96060.63;;;20.30;54.18
49943;BME280;36011;53.362;58.948;2023-07-13T14:09:44;96041.56;;;20.33;54.57
49943;BME280;36011;53.362;58.948;2023-07-13T14:12:47;96036.75;;;20.28;54.49
49943;BME280;36011;53.362;58.948;2023-07-13T14:15:53;96039.47;;;20.20;54.15
49943;BME280;36011;53.362;58.948;2023-07-13T14:18:55;96043.69;;;20.14;54.18
49943;BME280;36011;53.362;58.948;2023-07-13T14:22:01;96039.38;;;20.13;54.53
49943;BME280;36011;53.362;58.948;2023-07-13T14:25:02;96034.03;;;20.13;54.02
49943;BME280;36011;53.362;58.948;2023-07-13T14:28:23;96036.88;;;20.12;53.79
49943;BME280;36011;53.362;58.948;2023-07-13T14:31:25;96027.59;;;20.23;53.40
49943;BME280;36011;53.362;58.948;2023-07-13T14:34:31;96028.56;;;20.30;53.23
49943;BME280;36011;53.362;58.948;2023-07-13T14:37:32;96025.59;;;20.25;53.38
49943;BME280;36011;53.362;58.948;2023-07-13T14:40:41;96023.53;;;20.27;53.17
49943;BME280;36011;53.362;58.948;2023-07-13T14:43:47;96017.88;;;20.30;53.11
49943;BME280;36011;53.362;58.948;2023-07-13T14:46:57;96030.28;;;20.23;53.76
49943;BME280;36011;53.362;58.948;2023-07-13T14:50:03;96015.63;;;20.18;53.12
49943;BME280;36011;53.362;58.948;2023-07-13T14:53:10;96018.63;;;20.15;53.35
49943;BME280;36011;53.362;58.948;2023-07-13T14:56:16;96014.22;;;20.08;53.24
49943;BME280;36011;53.362;58.948;2023-07-13T14:59:20;96014.44;;;19.98;53.30
49943;BME280;36011;53.362;58.948;2023-07-13T15:05:28;96018.13;;;19.97;52.72
49943;BME280;36011;53.362;58.948;2023-07-13T15:08:32;96021.81;;;19.96;53.03
49943;BME280;36011;53.362;58.948;2023-07-13T15:11:35;96021.63;;;19.98;54.11
49943;BME280;36011;53.362;58.948;2023-07-13T15:14:36;96027.78;;;19.98;53.14
49943;BME280;36011;53.362;58.948;2023-07-13T15:17:42;96014.75;;;20.03;52.86
49943;BME280;36011;53.362;58.948;2023-07-13T15:20:47;96023.84;;;19.94;53.81
49943;BME280;36011;53.362;58.948;2023-07-13T15:23:49;96015.53;;;19.66;54.40
49943;BME280;36011;53.362;58.948;2023-07-13T15:26:52;96006.88;;;19.56;54.61
49943;BME280;36011;53.362;58.948;2023-07-13T15:29:56;96000.75;;;19.47;54.47
49943;BME280;36011;53.362;58.948;2023-07-13T15:33:01;96000.75;;;19.47;55.74
49943;BME280;36011;53.362;58.948;2023-07-13T15:36:09;95995.66;;;19.37;56.93
49943;BME280;36011;53.362;58.948;2023-07-13T15:39:15;95986.03;;;19.28;57.75
49943;BME280;36011;53.362;58.948;2023-07-13T15:42:18;95980.00;;;19.03;57.76
49943;BME280;36011;53.362;58.948;2023-07-13T15:45:21;95973.69;;;18.96;58.41
49943;BME280;36011;53.362;58.948;2023-07-13T15:48:26;95968.19;;;18.97;58.19
49943;BME280;36011;53.362;58.948;2023-07-13T15:51:29;95974.56;;;18.88;58.01
49943;BME280;36011;53.362;58.948;2023-07-13T15:54:31;95971.72;;;18.90;57.99
49943;BME280;36011;53.362;58.948;2023-07-13T15:57:39;95980.22;;;18.85;58.15
49943;BME280;36011;53.362;58.948;2023-07-13T16:00:44;95979.75;;;18.81;58.00
49943;BME280;36011;53.362;58.948;2023-07-13T16:03:48;95965.75;;;18.79;58.79
49943;BME280;36011;53.362;58.948;2023-07-13T16:06:51;95964.41;;;18.83;58.09
49943;BME280;36011;53.362;58.948;2023-07-13T16:09:56;95957.91;;;18.86;58.82
49943;BME280;36011;53.362;58.948;2023-07-13T16:13:01;95955.44;;;18.76;58.83
49943;BME280;36011;53.362;58.948;2023-07-13T16:16:04;95956.63;;;18.74;58.72
49943;BME280;36011;53.362;58.948;2023-07-13T16:19:09;95957.78;;;18.71;58.93
49943;BME280;36011;53.362;58.948;2023-07-13T16:22:14;95949.47;;;18.66;58.84
49943;BME280;36011;53.362;58.948;2023-07-13T16:25:22;95935.47;;;18.64;59.04
49943;BME280;36011;53.362;58.948;2023-07-13T16:28:29;95931.47;;;18.68;58.35
49943;BME280;36011;53.362;58.948;2023-07-13T16:31:33;95933.63;;;18.73;58.12
49943;BME280;36011;53.362;58.948;2023-07-13T16:34:36;95921.81;;;18.75;58.25
49943;BME280;36011;53.362;58.948;2023-07-13T16:37:44;95913.47;;;18.78;57.46
49943;BME280;36011;53.362;58.948;2023-07-13T16:40:48;95917.47;;;18.82;57.23
49943;BME280;36011;53.362;58.948;2023-07-13T16:43:55;95927.78;;;18.86;57.40